createdAt,value
2024-03-05T00:01:28.638Z,6.38
2024-03-05T00:03:58.541Z,6.03
2024-03-05T00:06:26.995Z,6.00
2024-03-05T00:08:55.494Z,6.55
2024-03-05T00:11:24.049Z,6.15
2024-03-05T00:13:53.635Z,6.60
2024-03-05T00:16:22.137Z,7.07
2024-03-05T00:18:50.717Z,6.35
2024-03-05T00:21:20.494Z,6.47
2024-03-05T00:23:51.462Z,6.38
2024-03-05T00:26:22.522Z,6.20
2024-03-05T00:28:51.059Z,6.72
2024-03-05T00:31:19.767Z,7.35
2024-03-05T00:33:52.428Z,6.97
2024-03-05T00:36:26.418Z,6.95
2024-03-05T00:38:55.055Z,6.85
2024-03-05T00:41:23.534Z,7.00
2024-03-05T00:43:53.415Z,6.88
2024-03-05T00:46:22.102Z,7.55
2024-03-05T00:48:52.944Z,7.35
2024-03-05T00:51:23.549Z,6.63
2024-03-05T00:53:52.053Z,7.68
2024-03-05T00:56:20.579Z,8.05
2024-03-05T00:58:49.303Z,7.03
2024-03-05T01:01:17.859Z,7.45
2024-03-05T01:03:48.997Z,6.82
2024-03-05T01:06:17.688Z,7.78
2024-03-05T01:08:47.504Z,7.53
2024-03-05T01:11:16.134Z,7.28
2024-03-05T01:13:46.873Z,8.02
2024-03-05T01:16:15.560Z,6.97
2024-03-05T01:18:44.505Z,6.50
2024-03-05T01:21:15.761Z,8.15
2024-03-05T01:23:44.981Z,7.05
2024-03-05T01:26:14.831Z,7.68
2024-03-05T01:28:43.402Z,7.25
2024-03-05T01:31:12.121Z,6.65
2024-03-05T01:33:41.670Z,7.60
2024-03-05T01:36:11.661Z,7.30
2024-03-05T01:38:43.069Z,7.57
2024-03-05T01:41:11.690Z,7.75
2024-03-05T01:43:44.001Z,6.72
2024-03-05T01:46:15.227Z,6.90
2024-03-05T01:48:44.488Z,6.88
2024-03-05T01:51:14.303Z,6.57
2024-03-05T01:53:42.935Z,7.20
2024-03-05T01:56:11.541Z,6.75
2024-03-05T01:58:41.660Z,6.45
2024-03-05T02:01:10.219Z,6.90
2024-03-05T02:03:43.207Z,7.10
2024-03-05T02:06:13.859Z,7.05
2024-03-05T02:08:45.159Z,7.22
2024-03-05T02:11:21.835Z,7.15
2024-03-05T02:13:56.377Z,6.80
2024-03-05T02:16:27.123Z,7.60
2024-03-05T02:18:57.756Z,6.35
2024-03-05T02:21:29.966Z,7.15
2024-03-05T02:23:58.775Z,6.05
2024-03-05T02:26:30.252Z,6.20
2024-03-05T02:29:01.741Z,7.43
2024-03-05T02:31:30.270Z,7.63
2024-03-05T02:34:00.916Z,7.65
2024-03-05T02:36:31.516Z,7.40
2024-03-05T02:38:59.911Z,7.82
2024-03-05T02:41:28.462Z,8.52
2024-03-05T02:43:57.817Z,9.70
2024-03-05T02:46:26.875Z,9.95
2024-03-05T02:48:55.298Z,9.57
2024-03-05T02:51:23.839Z,9.32
2024-03-05T02:53:53.670Z,10.25
2024-03-05T02:56:22.063Z,8.00
2024-03-05T02:58:50.708Z,8.45
2024-03-05T03:01:21.199Z,7.78
2024-03-05T03:03:49.674Z,8.77
2024-03-05T03:06:18.652Z,8.57
2024-03-05T03:08:47.205Z,8.90
2024-03-05T03:11:21.038Z,8.48
2024-03-05T03:13:49.674Z,9.35
2024-03-05T03:16:18.658Z,9.77
2024-03-05T03:18:47.089Z,9.65
2024-03-05T03:21:15.980Z,9.55
2024-03-05T03:23:45.694Z,9.65
2024-03-05T03:26:14.218Z,11.20
2024-03-05T03:28:44.169Z,10.48
2024-03-05T03:31:12.820Z,10.80
2024-03-05T03:33:41.353Z,11.02
2024-03-05T03:36:10.016Z,12.07
2024-03-05T03:38:38.798Z,10.52
2024-03-05T03:41:07.672Z,11.63
2024-03-05T03:43:38.877Z,11.07
2024-03-05T03:46:09.428Z,10.57
2024-03-05T03:48:39.048Z,12.80
2024-03-05T03:51:07.805Z,12.52
2024-03-05T03:53:38.498Z,10.48
2024-03-05T03:56:07.296Z,12.13
2024-03-05T03:58:36.494Z,11.70
2024-03-05T04:01:05.186Z,11.65
2024-03-05T04:03:37.196Z,12.02
2024-03-05T04:06:06.152Z,11.57
2024-03-05T04:08:35.066Z,11.80
2024-03-05T04:11:04.071Z,12.25
2024-03-05T04:13:35.259Z,12.32
2024-03-05T04:16:05.767Z,11.93
2024-03-05T04:18:36.256Z,12.30
2024-03-05T04:21:04.990Z,11.73
2024-03-05T04:23:33.755Z,12.73
2024-03-05T04:26:08.547Z,10.90
2024-03-05T04:28:50.100Z,11.20
2024-03-05T04:31:21.551Z,12.73
2024-03-05T04:33:53.931Z,12.88
2024-03-05T04:36:22.455Z,12.40
2024-03-05T04:38:51.112Z,11.20
2024-03-05T04:41:21.670Z,12.02
2024-03-05T04:43:50.484Z,13.13
2024-03-05T04:46:19.428Z,12.63
2024-03-05T04:48:49.482Z,13.50
2024-03-05T04:51:19.692Z,14.20
2024-03-05T04:53:48.373Z,13.75
2024-03-05T04:56:19.384Z,13.60
2024-03-05T04:58:50.082Z,13.50
2024-03-05T05:01:20.781Z,13.73
2024-03-05T05:03:49.741Z,14.32
2024-03-05T05:06:19.526Z,14.68
2024-03-05T05:08:50.501Z,13.10
2024-03-05T05:11:19.079Z,13.82
2024-03-05T05:13:47.613Z,15.25
2024-03-05T05:16:16.260Z,13.93
2024-03-05T05:18:45.193Z,13.25
2024-03-05T05:21:13.544Z,13.27
2024-03-05T05:23:43.573Z,14.45
2024-03-05T05:26:13.740Z,16.02
2024-03-05T05:28:42.774Z,14.43
2024-03-05T05:31:26.115Z,14.98
2024-03-05T05:33:56.812Z,14.52
2024-03-05T05:36:25.570Z,15.18
2024-03-05T05:38:57.507Z,14.77
2024-03-05T05:41:25.900Z,13.93
2024-03-05T05:43:54.571Z,15.13
2024-03-05T05:46:26.296Z,15.43
2024-03-05T05:48:55.693Z,14.93
2024-03-05T05:51:25.228Z,15.50
2024-03-05T05:53:55.199Z,15.77
2024-03-05T05:56:26.446Z,15.43
2024-03-05T05:58:55.624Z,17.35
2024-03-05T06:01:24.841Z,16.33
2024-03-05T06:03:55.158Z,16.38
2024-03-05T06:06:24.003Z,15.07
2024-03-05T06:08:52.491Z,15.98
2024-03-05T06:11:24.349Z,14.98
2024-03-05T06:13:53.209Z,16.60
2024-03-05T06:16:21.815Z,17.23
2024-03-05T06:18:50.277Z,17.40
2024-03-05T06:21:18.759Z,15.63
2024-03-05T06:23:47.211Z,17.45
2024-03-05T06:26:16.107Z,16.60
2024-03-05T06:28:46.020Z,16.42
2024-03-05T06:31:14.409Z,19.80
2024-03-05T06:33:45.417Z,18.35
2024-03-05T06:36:20.556Z,17.50
2024-03-05T06:38:48.084Z,19.23
2024-03-05T06:41:39.169Z,16.65
2024-03-05T06:44:12.223Z,18.05
2024-03-05T06:46:42.800Z,17.38
2024-03-05T06:49:16.168Z,17.25
2024-03-05T06:51:54.656Z,18.48
2024-03-05T06:54:40.740Z,18.85
2024-03-05T06:57:11.168Z,19.88
2024-03-05T06:59:45.142Z,17.85
2024-03-05T07:02:13.604Z,17.42
2024-03-05T07:04:44.675Z,17.95
2024-03-05T07:07:13.309Z,18.55
2024-03-05T07:09:43.662Z,17.52
2024-03-05T07:12:13.686Z,16.75
2024-03-05T07:14:43.644Z,18.05
2024-03-05T07:17:12.406Z,18.02
2024-03-05T07:19:40.792Z,20.50
2024-03-05T07:22:09.290Z,17.42
2024-03-05T07:24:38.108Z,18.58
2024-03-05T07:27:09.137Z,20.58
2024-03-05T07:29:37.931Z,18.05
2024-03-05T07:32:08.695Z,19.38
2024-03-05T07:34:37.748Z,18.98
2024-03-05T07:37:06.989Z,20.08
2024-03-05T07:39:35.566Z,17.83
2024-03-05T07:42:03.975Z,18.85
2024-03-05T07:44:35.759Z,18.80
2024-03-05T07:47:04.754Z,19.98
2024-03-05T07:49:34.756Z,19.52
2024-03-05T07:52:03.377Z,19.45
2024-03-05T07:54:31.902Z,18.20
2024-03-05T07:57:00.372Z,19.70
2024-03-05T07:59:28.737Z,18.50
2024-03-05T08:01:58.627Z,19.63
2024-03-05T08:04:28.147Z,19.45
2024-03-05T08:06:58.782Z,19.55
2024-03-05T08:09:29.413Z,18.45
2024-03-05T08:11:57.864Z,18.20
2024-03-05T08:14:26.257Z,19.23
2024-03-05T08:16:55.552Z,20.17
2024-03-05T08:19:24.255Z,21.45
2024-03-05T08:21:55.118Z,18.77
2024-03-05T08:24:25.065Z,20.25
2024-03-05T08:26:53.844Z,18.88
2024-03-05T08:29:22.299Z,18.27
2024-03-05T08:31:50.985Z,18.30
2024-03-05T08:34:19.986Z,18.95
2024-03-05T08:36:50.722Z,19.83
2024-03-05T08:39:20.016Z,19.85
2024-03-05T08:41:49.999Z,20.90
2024-03-05T08:44:19.361Z,19.52
2024-03-05T08:46:48.276Z,20.38
2024-03-05T08:49:16.711Z,18.67
2024-03-05T08:51:46.424Z,19.33
2024-03-05T08:54:18.197Z,21.40
2024-03-05T08:56:47.272Z,20.85
2024-03-05T08:59:17.175Z,21.50
2024-03-05T09:01:45.836Z,20.92
2024-03-05T09:04:14.877Z,19.50
2024-03-05T09:06:43.427Z,17.58
2024-03-05T09:09:13.401Z,18.75
2024-03-05T09:11:44.231Z,21.45
2024-03-05T09:14:15.014Z,21.40
2024-03-05T09:16:44.955Z,21.10
2024-03-05T09:19:19.181Z,23.33
2024-03-05T09:21:47.680Z,20.85
2024-03-05T09:24:16.246Z,23.95
2024-03-05T09:26:44.726Z,23.85
2024-03-05T09:29:16.271Z,23.23
2024-03-05T09:31:47.956Z,24.33
2024-03-05T09:34:16.416Z,22.02
2024-03-05T09:36:45.471Z,21.42
2024-03-05T09:39:22.001Z,22.92
2024-03-05T09:41:50.684Z,22.95
2024-03-05T09:44:21.517Z,25.83
2024-03-05T09:46:51.976Z,23.98
2024-03-05T09:49:23.285Z,23.95
2024-03-05T09:51:56.076Z,23.27
2024-03-05T09:54:24.794Z,23.67
2024-03-05T09:56:55.730Z,24.95
2024-03-05T09:59:24.986Z,24.60
2024-03-05T10:01:55.254Z,24.02
2024-03-05T10:04:33.131Z,25.13
2024-03-05T10:07:07.838Z,21.85
2024-03-05T10:09:37.096Z,23.52
2024-03-05T10:12:09.700Z,24.10
2024-03-05T10:14:42.334Z,25.98
2024-03-05T10:17:12.477Z,23.50
2024-03-05T10:19:45.588Z,21.58
2024-03-05T10:22:16.414Z,21.42
2024-03-05T10:24:45.047Z,22.45
2024-03-05T10:27:18.060Z,23.15
2024-03-05T10:29:48.970Z,25.13
2024-03-05T10:32:21.593Z,24.15
2024-03-05T10:34:50.128Z,23.55
2024-03-05T10:37:21.002Z,21.40
2024-03-05T10:39:53.861Z,22.92
2024-03-05T10:42:26.848Z,21.05
2024-03-05T10:44:55.627Z,21.98
2024-03-05T10:47:28.168Z,21.33
2024-03-05T10:49:59.926Z,20.95
2024-03-05T10:52:30.656Z,21.23
2024-03-05T10:55:00.291Z,18.95
2024-03-05T10:57:30.316Z,19.60
2024-03-05T11:00:00.076Z,18.27
2024-03-05T11:02:33.144Z,18.17
2024-03-05T11:05:02.828Z,20.52
2024-03-05T11:07:31.769Z,20.45
2024-03-05T11:10:00.918Z,18.60
2024-03-05T11:12:30.959Z,19.02
2024-03-05T11:15:02.795Z,17.15
2024-03-05T11:17:32.982Z,18.92
2024-03-05T11:20:01.992Z,18.00
2024-03-05T11:22:31.742Z,17.73
2024-03-05T11:25:03.741Z,18.05
2024-03-05T11:27:37.873Z,17.63
2024-03-05T11:30:17.010Z,16.90
2024-03-05T11:32:47.834Z,16.70
2024-03-05T11:35:17.047Z,15.13
2024-03-05T11:37:51.909Z,14.68
2024-03-05T11:40:22.977Z,14.07
2024-03-05T11:42:58.848Z,15.43
2024-03-05T11:45:46.136Z,15.00
2024-03-05T11:48:17.489Z,15.63
2024-03-05T11:50:46.168Z,15.18
2024-03-05T11:53:14.964Z,15.95
2024-03-05T11:55:44.014Z,13.40
2024-03-05T11:58:14.722Z,12.20
2024-03-05T12:00:48.348Z,12.90
2024-03-05T12:03:20.935Z,13.05
2024-03-05T12:05:49.719Z,13.73
2024-03-05T12:08:18.637Z,12.07
2024-03-05T12:10:51.050Z,11.18
2024-03-05T12:13:24.697Z,11.00
2024-03-05T12:15:53.298Z,11.90
2024-03-05T12:18:28.092Z,11.07
2024-03-05T12:20:58.803Z,11.32
2024-03-05T12:23:41.134Z,11.02
2024-03-05T12:26:12.050Z,11.10
2024-03-05T12:28:40.719Z,11.27
2024-03-05T12:31:11.686Z,10.25
2024-03-05T12:33:44.675Z,8.80
2024-03-05T12:36:17.081Z,10.18
2024-03-05T12:38:45.776Z,10.05
2024-03-05T12:41:20.226Z,10.88
2024-03-05T12:43:55.329Z,10.73
2024-03-05T12:46:26.246Z,9.93
2024-03-05T12:49:00.812Z,10.95
2024-03-05T12:51:30.510Z,8.52
2024-03-05T12:54:08.964Z,10.07
2024-03-05T12:56:44.873Z,10.50
2024-03-05T12:59:18.835Z,11.10
2024-03-05T13:01:47.558Z,10.27
2024-03-05T13:04:21.776Z,10.05
2024-03-05T13:06:52.816Z,9.25
2024-03-05T13:09:22.125Z,8.73
2024-03-05T13:11:54.620Z,7.90
2024-03-05T13:14:24.794Z,8.73
2024-03-05T13:16:56.093Z,9.05
2024-03-05T13:19:28.172Z,7.97
2024-03-05T13:21:58.908Z,7.90
2024-03-05T13:24:27.456Z,8.75
2024-03-05T13:26:55.874Z,7.35
2024-03-05T13:29:28.595Z,7.13
2024-03-05T13:31:57.261Z,7.70
2024-03-05T13:34:28.286Z,7.07
2024-03-05T13:36:59.903Z,5.18
2024-03-05T13:39:28.511Z,5.05
2024-03-05T13:41:59.457Z,5.63
2024-03-05T13:44:30.357Z,5.75
2024-03-05T13:46:58.924Z,5.70
2024-03-05T13:49:28.978Z,5.07
2024-03-05T13:51:59.676Z,4.97
2024-03-05T13:54:28.200Z,5.13
2024-03-05T13:56:57.146Z,4.88
2024-03-05T13:59:25.628Z,5.38
2024-03-05T14:01:54.326Z,5.25
2024-03-05T14:04:22.846Z,5.80
2024-03-05T14:06:52.775Z,5.53
2024-03-05T14:09:21.769Z,5.35
2024-03-05T14:11:52.434Z,5.60
2024-03-05T14:14:21.738Z,4.95
2024-03-05T14:16:50.834Z,4.75
2024-03-05T14:19:19.631Z,4.45
2024-03-05T14:21:48.240Z,5.32
2024-03-05T14:24:25.303Z,5.07
2024-03-05T14:26:54.723Z,4.78
2024-03-05T14:29:23.716Z,4.45
2024-03-05T14:31:52.128Z,4.30
2024-03-05T14:34:22.623Z,4.53
2024-03-05T14:36:51.174Z,5.05
2024-03-05T14:39:28.454Z,4.22
2024-03-05T14:42:02.224Z,3.72
2024-03-05T14:44:30.979Z,3.17
2024-03-05T14:47:01.372Z,3.08
2024-03-05T14:49:30.000Z,2.80
2024-03-05T14:51:58.523Z,1.85
2024-03-05T14:54:29.200Z,2.13
2024-03-05T14:56:59.893Z,2.10
2024-03-05T14:59:28.494Z,2.60
2024-03-05T15:01:57.110Z,3.10
2024-03-05T15:04:25.643Z,3.85
2024-03-05T15:06:57.552Z,2.95
2024-03-05T15:09:25.979Z,3.10
2024-03-05T15:11:59.031Z,3.10
2024-03-05T15:14:27.529Z,3.10
2024-03-05T15:16:56.243Z,3.17
2024-03-05T15:19:24.854Z,3.53
2024-03-05T15:21:56.592Z,3.22
2024-03-05T15:24:25.217Z,3.63
2024-03-05T15:27:01.714Z,3.22
2024-03-05T15:29:37.562Z,4.07
2024-03-05T15:32:07.206Z,3.60
2024-03-05T15:34:35.765Z,3.83
2024-03-05T15:37:09.972Z,3.30
2024-03-05T15:39:38.810Z,2.85
2024-03-05T15:42:07.589Z,2.28
2024-03-05T15:44:37.445Z,2.58
2024-03-05T15:47:06.106Z,2.40
2024-03-05T15:49:37.160Z,2.45
2024-03-05T15:52:06.080Z,3.20
2024-03-05T15:54:34.778Z,2.40
2024-03-05T15:57:04.070Z,2.53
2024-03-05T15:59:56.800Z,2.85
2024-03-05T16:02:31.704Z,3.20
2024-03-05T16:05:18.124Z,2.70
2024-03-05T16:07:54.971Z,2.88
2024-03-05T16:10:23.592Z,2.55
2024-03-05T16:12:52.037Z,2.65
2024-03-05T16:15:20.660Z,2.40
2024-03-05T16:17:50.945Z,2.70
2024-03-05T16:20:20.700Z,2.60
2024-03-05T16:22:49.657Z,2.70
2024-03-05T16:25:23.439Z,3.00
2024-03-05T16:27:55.207Z,2.47
2024-03-05T16:30:25.336Z,3.05
2024-03-05T16:32:55.897Z,3.55
2024-03-05T16:35:28.662Z,2.58
2024-03-05T16:37:57.771Z,3.72
2024-03-05T16:40:29.160Z,3.03
2024-03-05T16:43:06.784Z,3.15
2024-03-05T16:45:37.025Z,3.40
2024-03-05T16:48:10.272Z,4.05
2024-03-05T16:50:40.838Z,3.35
2024-03-05T16:53:11.235Z,3.67
2024-03-05T16:55:40.807Z,3.70
2024-03-05T16:58:13.902Z,3.60
2024-03-05T17:00:53.134Z,3.50
2024-03-05T17:03:25.825Z,3.20
2024-03-05T17:05:58.380Z,3.40
2024-03-05T17:08:28.109Z,3.38
2024-03-05T17:10:56.698Z,3.28
2024-03-05T17:13:28.199Z,3.92
2024-03-05T17:16:00.749Z,3.70
2024-03-05T17:18:37.221Z,3.47
2024-03-05T17:21:07.537Z,3.42
2024-03-05T17:23:42.374Z,3.30
2024-03-05T17:26:13.594Z,3.95
2024-03-05T17:28:43.428Z,3.58
2024-03-05T17:31:12.965Z,4.07
2024-03-05T17:33:46.323Z,2.63
2024-03-05T17:36:15.109Z,3.95
2024-03-05T17:38:43.763Z,4.07
2024-03-05T17:41:13.386Z,4.90
2024-03-05T17:43:42.540Z,4.55
2024-03-05T17:46:15.898Z,4.88
2024-03-05T17:48:46.604Z,4.05
2024-03-05T17:51:15.263Z,3.90
2024-03-05T17:53:45.366Z,3.33
2024-03-05T17:56:16.700Z,3.38
2024-03-05T17:58:45.357Z,3.58
2024-03-05T18:01:16.403Z,3.60
2024-03-05T18:03:46.484Z,3.97
2024-03-05T18:06:19.513Z,3.47
2024-03-05T18:08:53.703Z,4.28
2024-03-05T18:11:24.989Z,2.95
2024-03-05T18:13:54.487Z,3.70
2024-03-05T18:16:30.225Z,4.22
2024-03-05T18:19:03.648Z,4.28
2024-03-05T18:21:34.078Z,3.90
2024-03-05T18:24:05.180Z,3.58
2024-03-05T18:26:35.504Z,4.22
2024-03-05T18:29:07.146Z,5.15
2024-03-05T18:31:37.373Z,4.80
2024-03-05T18:34:07.809Z,4.60
2024-03-05T18:36:38.785Z,4.43
2024-03-05T18:39:09.509Z,4.90
2024-03-05T18:41:39.694Z,5.07
2024-03-05T18:44:12.952Z,5.82
2024-03-05T18:46:46.451Z,5.65
2024-03-05T18:49:20.959Z,5.30
2024-03-05T18:51:51.377Z,5.13
2024-03-05T18:54:20.269Z,5.35
2024-03-05T18:56:50.416Z,5.43
2024-03-05T18:59:24.140Z,5.32
2024-03-05T19:01:53.460Z,5.57
2024-03-05T19:04:26.475Z,5.43
2024-03-05T19:06:55.720Z,5.03
2024-03-05T19:09:24.294Z,5.32
2024-03-05T19:11:52.980Z,6.10
2024-03-05T19:14:22.416Z,5.60
2024-03-05T19:16:51.044Z,5.97
2024-03-05T19:19:22.253Z,6.00
2024-03-05T19:21:53.640Z,4.97
2024-03-05T19:24:22.697Z,6.78
2024-03-05T19:26:51.798Z,5.80
2024-03-05T19:29:20.875Z,5.53
2024-03-05T19:31:50.656Z,5.50
2024-03-05T19:34:19.385Z,5.60
2024-03-05T19:36:53.280Z,5.40
2024-03-05T19:39:24.098Z,5.82
2024-03-05T19:41:53.289Z,6.32
2024-03-05T19:44:22.575Z,5.90
2024-03-05T19:46:51.349Z,6.05
2024-03-05T19:49:23.472Z,6.45
2024-03-05T19:51:52.722Z,7.40
2024-03-05T19:54:26.051Z,6.85
2024-03-05T19:56:57.188Z,5.93
2024-03-05T19:59:28.711Z,6.35
2024-03-05T20:02:01.590Z,5.70
2024-03-05T20:04:32.951Z,5.82
2024-03-05T20:07:04.976Z,7.00
2024-03-05T20:09:36.189Z,6.57
2024-03-05T20:12:06.910Z,7.00
2024-03-05T20:14:37.862Z,6.20
2024-03-05T20:17:08.703Z,7.28
2024-03-05T20:19:40.587Z,6.55
2024-03-05T20:22:11.919Z,6.43
2024-03-05T20:24:40.940Z,6.03
2024-03-05T20:27:11.402Z,6.63
2024-03-05T20:29:39.932Z,6.40
2024-03-05T20:32:11.054Z,6.05
2024-03-05T20:34:45.884Z,5.45
2024-03-05T20:37:15.276Z,5.25
2024-03-05T20:39:45.213Z,6.00
2024-03-05T20:42:15.630Z,6.30
2024-03-05T20:44:44.387Z,6.20
2024-03-05T20:47:13.893Z,6.55
2024-03-05T20:49:43.631Z,6.88
2024-03-05T20:52:15.006Z,6.82
2024-03-05T20:54:43.876Z,6.80
2024-03-05T20:57:12.526Z,6.70
2024-03-05T20:59:43.106Z,6.30
2024-03-05T21:02:12.129Z,6.25
2024-03-05T21:04:41.274Z,6.25
2024-03-05T21:07:10.268Z,6.93
2024-03-05T21:09:40.942Z,6.80
2024-03-05T21:12:10.051Z,5.65
2024-03-05T21:14:38.747Z,7.55
2024-03-05T21:17:11.131Z,6.80
2024-03-05T21:19:44.408Z,7.85
2024-03-05T21:22:13.066Z,7.60
2024-03-05T21:24:41.919Z,7.15
2024-03-05T21:27:20.401Z,8.02
2024-03-05T21:29:50.677Z,8.82
2024-03-05T21:32:24.981Z,8.20
2024-03-05T21:34:56.329Z,7.28
2024-03-05T21:37:27.042Z,7.63
2024-03-05T21:39:56.453Z,8.80
2024-03-05T21:42:29.298Z,7.05
2024-03-05T21:45:00.373Z,8.25
2024-03-05T21:47:32.899Z,7.78
2024-03-05T21:50:02.865Z,7.88
2024-03-05T21:52:31.707Z,7.60
2024-03-05T21:55:00.515Z,8.65
2024-03-05T21:57:31.703Z,8.82
2024-03-05T22:00:00.298Z,8.25
2024-03-05T22:02:30.622Z,8.40
2024-03-05T22:05:01.000Z,7.75
2024-03-05T22:07:30.414Z,7.70
2024-03-05T22:09:59.155Z,8.00
2024-03-05T22:12:27.913Z,7.85
2024-03-05T22:14:56.621Z,7.40
2024-03-05T22:17:27.637Z,7.80
2024-03-05T22:19:58.258Z,7.75
2024-03-05T22:22:31.540Z,7.53
2024-03-05T22:25:01.808Z,8.35
2024-03-05T22:27:30.650Z,9.40
2024-03-05T22:30:01.758Z,9.55
2024-03-05T22:32:34.457Z,9.88
2024-03-05T22:35:11.022Z,9.43
2024-03-05T22:37:43.507Z,9.60
2024-03-05T22:40:13.248Z,9.85
2024-03-05T22:42:42.380Z,8.80
2024-03-05T22:45:12.568Z,9.10
2024-03-05T22:47:41.226Z,9.32
2024-03-05T22:50:15.916Z,9.07
2024-03-05T22:52:46.225Z,9.65
2024-03-05T22:55:20.535Z,9.63
2024-03-05T22:57:53.166Z,9.07
2024-03-05T23:00:24.751Z,9.38
2024-03-05T23:02:54.085Z,9.35
2024-03-05T23:05:24.186Z,9.30
2024-03-05T23:07:53.096Z,9.43
2024-03-05T23:10:25.405Z,9.80
2024-03-05T23:12:54.825Z,9.35
2024-03-05T23:15:26.006Z,9.23
2024-03-05T23:17:58.917Z,9.30
2024-03-05T23:20:29.656Z,9.50
2024-03-05T23:22:58.407Z,9.07
2024-03-05T23:25:27.859Z,9.75
2024-03-05T23:27:57.692Z,9.15
2024-03-05T23:30:27.028Z,10.27
2024-03-05T23:32:56.146Z,10.50
2024-03-05T23:35:25.206Z,10.05
2024-03-05T23:37:55.319Z,9.77
2024-03-05T23:40:26.634Z,9.38
2024-03-05T23:42:55.475Z,9.98
2024-03-05T23:45:24.239Z,10.18
2024-03-05T23:47:57.629Z,9.32
2024-03-05T23:50:26.302Z,9.43
2024-03-05T23:52:57.031Z,9.73
2024-03-05T23:55:27.896Z,10.38
2024-03-05T23:57:56.476Z,10.52
